Climatologie pour Saint-Brevin les Pins
Jour • Résumé pour mai 18, 2017 Système :  Métrique    Anglais   Mixte
« - 1 jour
+ 1 jour »
Jour Semaine Mois Année Personnalisé
  Maximum : Minimum : Moyenne :
Température sous abri : 15.7 °C 10.0 °C 13 °C
Point de rosée : 14.7 °C 7.4 °C 10.9 °C
Humidité : 98 % 71 % 88 %
Vitesse du vent : 24.1 km/h 0.0 km/h 7.1 km/h
Rafale : 33.8 km/h - -
Direction :- - West
Pression : 1016.1 hPa 1013.4 hPa -
Précipitations : 1.3 mm    
Historical Graphs
 
 
Tableau de données pour mai 18, 2017
Heure Tempé Pt rosée Pression Vent Vitesse Rafale Humidité Taux pluie (/hr) Soleil
00:00 15.1 °C 14.7 °C 1014.4 hPa SW 1.6 km/h 16.1 km/h 98 % 0.5 mm 0 W/m2
00:05 15.1 °C 14.7 °C 1014.4 hPa SW 8.0 km/h 16.1 km/h 98 % 0.5 mm 0 W/m2
00:10 15.1 °C 14.7 °C 1014.4 hPa West 3.2 km/h 11.3 km/h 98 % 0.3 mm 0 W/m2
00:15 15.1 °C 14.7 °C 1014.4 hPa WSW 4.8 km/h 11.3 km/h 98 % 0.3 mm 0 W/m2
00:25 14.9 °C 14.6 °C 1014.4 hPa WSW 4.8 km/h 12.9 km/h 98 % 0.0 mm 0 W/m2
00:30 14.8 °C 14.4 °C 1014.4 hPa WSW 6.4 km/h 12.9 km/h 97 % 0.0 mm 0 W/m2
00:40 14.8 °C 14.5 °C 1014.4 hPa SW 6.4 km/h 11.3 km/h 98 % 0.0 mm 0 W/m2
00:45 14.8 °C 14.5 °C 1014.4 hPa WSW 1.6 km/h 11.3 km/h 98 % 0.0 mm 0 W/m2
00:50 14.8 °C 14.5 °C 1014.4 hPa Calm   6.4 km/h 98 % 0.0 mm 0 W/m2
00:55 14.9 °C 14.6 °C 1014.4 hPa West 4.8 km/h 6.4 km/h 98 % 0.0 mm 0 W/m2
01:05 14.9 °C 14.6 °C 1014.4 hPa Calm   6.4 km/h 98 % 0.3 mm 0 W/m2
01:10 14.9 °C 14.5 °C 1014.1 hPa WSW 3.2 km/h 6.4 km/h 98 % 0.3 mm 0 W/m2
01:15 14.9 °C 14.6 °C 1014.1 hPa Calm   4.8 km/h 98 % 0.5 mm 0 W/m2
01:20 14.9 °C 14.6 °C 1014.4 hPa West 3.2 km/h 9.7 km/h 98 % 0.5 mm 0 W/m2
01:25 14.8 °C 14.5 °C 1014.4 hPa West 1.6 km/h 9.7 km/h 98 % 0.5 mm 0 W/m2
01:30 14.8 °C 14.5 °C 1014.1 hPa West 1.6 km/h 6.4 km/h 98 % 0.5 mm 0 W/m2
01:35 14.7 °C 14.4 °C 1014.1 hPa WNW 1.6 km/h 6.4 km/h 98 % 0.5 mm 0 W/m2
01:40 14.7 °C 14.4 °C 1014.1 hPa Calm   6.4 km/h 98 % 0.5 mm 0 W/m2
01:45 14.7 °C 14.4 °C 1014.1 hPa Calm   6.4 km/h 98 % 0.5 mm 0 W/m2
01:50 14.7 °C 14.4 °C 1014.1 hPa Calm   6.4 km/h 98 % 0.5 mm 0 W/m2
01:55 14.7 °C 14.4 °C 1014.1 hPa Calm   6.4 km/h 98 % 0.5 mm 0 W/m2
02:00 14.7 °C 14.4 °C 1014.1 hPa Calm   3.2 km/h 98 % 0.5 mm 0 W/m2
02:05 14.7 °C 14.4 °C 1014.1 hPa Calm   1.6 km/h 98 % 0.3 mm 0 W/m2
02:10 14.7 °C 14.4 °C 1013.8 hPa West 3.2 km/h 3.2 km/h 98 % 0.3 mm 0 W/m2
02:15 14.7 °C 14.4 °C 1013.8 hPa Calm   4.8 km/h 98 % 0.0 mm 0 W/m2
02:20 14.7 °C 14.4 °C 1013.8 hPa Calm   4.8 km/h 98 % 0.0 mm 0 W/m2
02:25 14.7 °C 14.4 °C 1013.8 hPa Calm   1.6 km/h 98 % 0.0 mm 0 W/m2
02:30 14.7 °C 14.4 °C 1013.8 hPa Calm   4.8 km/h 98 % 0.0 mm 0 W/m2
02:35 14.7 °C 14.4 °C 1013.8 hPa Calm   4.8 km/h 98 % 0.0 mm 0 W/m2
02:40 14.8 °C 14.5 °C 1013.8 hPa Calm   4.8 km/h 98 % 0.0 mm 0 W/m2
02:45 14.7 °C 14.4 °C 1013.8 hPa Calm   6.4 km/h 98 % 0.0 mm 0 W/m2
02:50 14.7 °C 14.4 °C 1013.8 hPa West 1.6 km/h 6.4 km/h 98 % 0.0 mm 0 W/m2
02:55 14.7 °C 14.4 °C 1013.4 hPa Calm   6.4 km/h 98 % 0.0 mm 0 W/m2
03:00 14.7 °C 14.4 °C 1013.4 hPa Calm   8.0 km/h 98 % 0.0 mm 0 W/m2
03:05 14.7 °C 14.4 °C 1013.4 hPa Calm   8.0 km/h 98 % 0.0 mm 0 W/m2
03:10 14.7 °C 14.4 °C 1013.8 hPa Calm   1.6 km/h 98 % 0.0 mm 0 W/m2
03:15 14.7 °C 14.4 °C 1013.4 hPa WNW 1.6 km/h 6.4 km/h 98 % 0.0 mm 0 W/m2
03:20 14.7 °C 14.4 °C 1013.4 hPa Calm   6.4 km/h 98 % 0.0 mm 0 W/m2
03:25 14.6 °C 14.2 °C 1013.4 hPa NNW 6.4 km/h 14.5 km/h 98 % 0.0 mm 0 W/m2
03:30 14.3 °C 14.0 °C 1013.4 hPa NW 8.0 km/h 14.5 km/h 98 % 0.3 mm 0 W/m2
03:35 14.1 °C 13.7 °C 1013.8 hPa Calm   14.5 km/h 98 % 0.3 mm 0 W/m2
03:40 13.9 °C 13.6 °C 1013.8 hPa NNW 1.6 km/h 11.3 km/h 98 % 0.3 mm 0 W/m2
03:45 13.8 °C 13.5 °C 1013.8 hPa NNW 3.2 km/h 16.1 km/h 98 % 0.5 mm 0 W/m2
03:50 13.6 °C 13.3 °C 1013.8 hPa Calm   20.9 km/h 98 % 0.5 mm 0 W/m2
03:55 13.4 °C 13.1 °C 1013.8 hPa Calm   20.9 km/h 98 % 0.5 mm 0 W/m2
04:00 13.2 °C 12.9 °C 1013.8 hPa Calm   16.1 km/h 98 % 0.5 mm 0 W/m2
04:05 12.8 °C 12.5 °C 1013.8 hPa North 11.3 km/h 16.1 km/h 98 % 0.5 mm 0 W/m2
04:10 12.6 °C 12.3 °C 1013.8 hPa NNW 6.4 km/h 17.7 km/h 98 % 0.5 mm 0 W/m2
04:15 12.5 °C 12.2 °C 1013.8 hPa NNE 9.7 km/h 17.7 km/h 98 % 0.5 mm 0 W/m2
04:20 12.4 °C 12.1 °C 1013.8 hPa North 6.4 km/h 17.7 km/h 98 % 0.5 mm 0 W/m2
04:25 12.4 °C 12.1 °C 1013.8 hPa Calm   14.5 km/h 98 % 0.5 mm 0 W/m2
04:30 12.4 °C 12.1 °C 1013.8 hPa NW 1.6 km/h 12.9 km/h 98 % 0.3 mm 0 W/m2
04:35 12.3 °C 12.0 °C 1014.1 hPa NNE 8.0 km/h 14.5 km/h 98 % 0.3 mm 0 W/m2
04:40 12.2 °C 11.9 °C 1014.1 hPa NW 1.6 km/h 14.5 km/h 98 % 0.3 mm 0 W/m2
04:45 12.1 °C 11.7 °C 1014.1 hPa WNW 8.0 km/h 14.5 km/h 98 % 0.0 mm 0 W/m2
04:50 11.8 °C 11.5 °C 1014.1 hPa North 9.7 km/h 19.3 km/h 98 % 0.0 mm 0 W/m2
04:55 11.6 °C 11.3 °C 1014.1 hPa NNW 12.9 km/h 19.3 km/h 98 % 0.3 mm 0 W/m2
05:00 11.4 °C 11.1 °C 1014.1 hPa NNW 8.0 km/h 17.7 km/h 98 % 0.3 mm 0 W/m2
05:05 11.2 °C 10.9 °C 1014.4 hPa NW 8.0 km/h 22.5 km/h 98 % 0.3 mm 0 W/m2
05:10 11.1 °C 10.8 °C 1014.4 hPa NNW 8.0 km/h 22.5 km/h 98 % 0.3 mm 0 W/m2
05:15 11.1 °C 10.8 °C 1014.4 hPa NNW 4.8 km/h 16.1 km/h 98 % 0.3 mm 0 W/m2
05:20 11.1 °C 10.8 °C 1014.4 hPa Calm   17.7 km/h 98 % 0.3 mm 0 W/m2
05:25 10.9 °C 10.6 °C 1014.4 hPa East 1.6 km/h 22.5 km/h 98 % 0.3 mm 0 W/m2
05:30 10.9 °C 10.6 °C 1014.8 hPa NW 6.4 km/h 22.5 km/h 98 % 0.3 mm 0 W/m2
05:35 10.9 °C 10.6 °C 1014.8 hPa NNW 8.0 km/h 16.1 km/h 98 % 0.3 mm 0 W/m2
05:40 10.9 °C 10.6 °C 1014.4 hPa North 3.2 km/h 12.9 km/h 98 % 0.3 mm 0 W/m2
05:45 11.0 °C 10.7 °C 1014.4 hPa NNW 4.8 km/h 16.1 km/h 98 % 0.3 mm 0 W/m2
05:50 10.9 °C 10.6 °C 1014.4 hPa North 9.7 km/h 17.7 km/h 98 % 0.3 mm 0 W/m2
05:55 10.7 °C 10.4 °C 1014.4 hPa North 1.6 km/h 17.7 km/h 98 % 0.0 mm 0 W/m2
06:00 10.6 °C 10.3 °C 1014.4 hPa WNW 1.6 km/h 17.7 km/h 98 % 0.0 mm 0 W/m2
06:05 10.5 °C 10.2 °C 1014.4 hPa NNW 16.1 km/h 20.9 km/h 98 % 0.0 mm 0 W/m2
06:10 10.3 °C 10.0 °C 1014.4 hPa North 11.3 km/h 20.9 km/h 98 % 0.0 mm 0 W/m2
06:15 10.3 °C 10.0 °C 1014.1 hPa NNE 16.1 km/h 20.9 km/h 98 % 0.0 mm 0 W/m2
06:20 10.1 °C 9.8 °C 1014.8 hPa North 6.4 km/h 20.9 km/h 98 % 0.0 mm 0 W/m2
06:25 10.1 °C 9.8 °C 1014.8 hPa NNW 8.0 km/h 19.3 km/h 98 % 0.0 mm 0 W/m2
06:30 10.1 °C 9.8 °C 1014.8 hPa North 1.6 km/h 12.9 km/h 98 % 0.0 mm 0 W/m2
06:35 10.0 °C 9.7 °C 1014.8 hPa NNW 4.8 km/h 16.1 km/h 98 % 0.0 mm 0 W/m2
06:40 10.0 °C 9.7 °C 1014.8 hPa NE 6.4 km/h 16.1 km/h 98 % 0.0 mm 0 W/m2
06:45 10.0 °C 9.7 °C 1014.8 hPa NNW 1.6 km/h 14.5 km/h 98 % 0.0 mm 0 W/m2
06:50 10.0 °C 9.7 °C 1014.8 hPa NNW 1.6 km/h 11.3 km/h 98 % 0.0 mm 0 W/m2
06:55 10.1 °C 9.8 °C 1014.8 hPa NW 3.2 km/h 12.9 km/h 98 % 0.0 mm 5 W/m2
07:00 10.2 °C 9.9 °C 1014.8 hPa NNW 8.0 km/h 12.9 km/h 98 % 0.0 mm 7 W/m2
07:05 10.1 °C 9.8 °C 1014.4 hPa NNE 6.4 km/h 16.1 km/h 98 % 0.0 mm 9 W/m2
07:10 10.1 °C 9.8 °C 1014.4 hPa Calm   16.1 km/h 98 % 0.0 mm 9 W/m2
07:15 10.1 °C 9.8 °C 1014.4 hPa NNW 6.4 km/h 12.9 km/h 98 % 0.0 mm 5 W/m2
07:20 10.1 °C 9.8 °C 1014.4 hPa NNW 3.2 km/h 12.9 km/h 98 % 0.0 mm 5 W/m2
07:30 10.1 °C 9.8 °C 1014.4 hPa WNW 8.0 km/h 14.5 km/h 98 % 0.0 mm 14 W/m2
07:35 10.1 °C 9.8 °C 1014.4 hPa NW 6.4 km/h 14.5 km/h 98 % 0.0 mm 16 W/m2
07:40 10.1 °C 9.8 °C 1014.8 hPa WNW 1.6 km/h 16.1 km/h 98 % 0.0 mm 19 W/m2
07:45 10.1 °C 9.8 °C 1014.4 hPa WNW 8.0 km/h 16.1 km/h 98 % 0.0 mm 21 W/m2
07:50 10.1 °C 9.8 °C 1014.4 hPa NNE 14.5 km/h 16.1 km/h 98 % 0.0 mm 25 W/m2
07:55 10.1 °C 9.8 °C 1014.4 hPa NW 3.2 km/h 17.7 km/h 98 % 0.0 mm 32 W/m2
08:00 10.0 °C 9.7 °C 1014.4 hPa North 1.6 km/h 17.7 km/h 98 % 0.0 mm 46 W/m2
08:05 10.2 °C 9.9 °C 1014.4 hPa NW 6.4 km/h 16.1 km/h 98 % 0.0 mm 35 W/m2
08:10 10.1 °C 9.8 °C 1014.4 hPa North 4.8 km/h 19.3 km/h 98 % 0.0 mm 35 W/m2
08:15 10.1 °C 9.8 °C 1014.4 hPa NNW 17.7 km/h 19.3 km/h 98 % 0.0 mm 39 W/m2
08:20 10.2 °C 9.9 °C 1014.4 hPa NNE 8.0 km/h 19.3 km/h 98 % 0.0 mm 84 W/m2
08:30 10.3 °C 10.0 °C 1014.4 hPa NW 9.7 km/h 24.1 km/h 98 % 0.3 mm 105 W/m2
08:35 10.6 °C 10.3 °C 1014.4 hPa North 3.2 km/h 14.5 km/h 98 % 0.3 mm 214 W/m2
08:40 10.7 °C 10.4 °C 1014.4 hPa NNW 9.7 km/h 14.5 km/h 98 % 0.3 mm 178 W/m2
08:45 10.7 °C 10.4 °C 1014.4 hPa Calm   14.5 km/h 98 % 0.3 mm 135 W/m2
08:50 10.6 °C 10.3 °C 1014.4 hPa NNE 8.0 km/h 16.1 km/h 98 % 0.3 mm 116 W/m2
08:55 10.6 °C 10.3 °C 1014.4 hPa NNW 6.4 km/h 16.1 km/h 98 % 0.3 mm 146 W/m2
09:00 10.7 °C 10.4 °C 1014.4 hPa North 1.6 km/h 14.5 km/h 98 % 0.3 mm 132 W/m2
09:05 10.7 °C 10.4 °C 1014.4 hPa NW 9.7 km/h 14.5 km/h 98 % 0.3 mm 130 W/m2
09:10 10.5 °C 10.0 °C 1014.4 hPa NNE 16.1 km/h 16.1 km/h 97 % 0.3 mm 125 W/m2
09:15 10.5 °C 10.0 °C 1014.4 hPa NNW 4.8 km/h 16.1 km/h 97 % 0.3 mm 95 W/m2
09:20 10.4 °C 10.0 °C 1014.8 hPa NNE 3.2 km/h 19.3 km/h 97 % 0.3 mm 91 W/m2
09:25 10.4 °C 9.9 °C 1014.8 hPa NNE 6.4 km/h 19.3 km/h 97 % 0.0 mm 98 W/m2
09:30 10.7 °C 10.2 °C 1014.8 hPa NNW 1.6 km/h 12.9 km/h 97 % 0.0 mm 93 W/m2
09:35 10.6 °C 10.2 °C 1014.8 hPa North 3.2 km/h 11.3 km/h 97 % 0.0 mm 67 W/m2
09:40 10.6 °C 9.9 °C 1015.1 hPa Calm   14.5 km/h 96 % 0.0 mm 62 W/m2
09:45 10.6 °C 10.2 °C 1015.1 hPa NNW 4.8 km/h 14.5 km/h 97 % 0.0 mm 70 W/m2
09:50 10.6 °C 9.9 °C 1015.1 hPa Calm   11.3 km/h 96 % 0.0 mm 72 W/m2
09:55 10.6 °C 9.9 °C 1015.1 hPa North 1.6 km/h 11.3 km/h 96 % 0.0 mm 77 W/m2
10:00 10.8 °C 10.2 °C 1015.1 hPa North 3.2 km/h 9.7 km/h 96 % 0.0 mm 91 W/m2
10:05 10.9 °C 10.3 °C 1015.1 hPa North 4.8 km/h 9.7 km/h 96 % 0.0 mm 144 W/m2
10:10 11.2 °C 10.6 °C 1015.1 hPa NW 8.0 km/h 8.0 km/h 96 % 0.0 mm 63 W/m2
10:15 11.2 °C 10.6 °C 1014.8 hPa NW 3.2 km/h 8.0 km/h 96 % 0.0 mm 121 W/m2
10:20 11.3 °C 10.7 °C 1015.1 hPa WNW 3.2 km/h 8.0 km/h 96 % 0.0 mm 160 W/m2
10:25 11.7 °C 11.1 °C 1015.1 hPa WNW 3.2 km/h 8.0 km/h 96 % 0.0 mm 163 W/m2
10:30 11.8 °C 11.2 °C 1015.1 hPa NW 3.2 km/h 11.3 km/h 96 % 0.0 mm 165 W/m2
10:40 12.4 °C 11.9 °C 1014.8 hPa Calm   9.7 km/h 97 % 0.0 mm 244 W/m2
10:45 12.4 °C 11.8 °C 1014.8 hPa NW 4.8 km/h 9.7 km/h 96 % 0.0 mm 239 W/m2
10:50 12.6 °C 12.0 °C 1014.4 hPa NNW 4.8 km/h 12.9 km/h 96 % 0.0 mm 269 W/m2
10:55 12.3 °C 11.4 °C 1014.8 hPa North 6.4 km/h 12.9 km/h 94 % 0.0 mm 271 W/m2
11:00 12.6 °C 11.6 °C 1015.1 hPa Calm   11.3 km/h 94 % 0.0 mm 216 W/m2
11:05 12.6 °C 11.5 °C 1015.1 hPa NNW 4.8 km/h 11.3 km/h 93 % 0.0 mm 165 W/m2
11:10 12.6 °C 11.5 °C 1015.1 hPa NW 1.6 km/h 11.3 km/h 93 % 0.0 mm 160 W/m2
11:15 12.4 °C 11.2 °C 1015.1 hPa WNW 1.6 km/h 12.9 km/h 92 % 0.0 mm 188 W/m2
11:20 12.4 °C 11.2 °C 1014.8 hPa Calm   12.9 km/h 92 % 0.0 mm 209 W/m2
11:25 12.6 °C 11.5 °C 1015.1 hPa West 8.0 km/h 14.5 km/h 93 % 0.0 mm 176 W/m2
11:30 12.4 °C 11.2 °C 1015.1 hPa WNW 4.8 km/h 14.5 km/h 92 % 0.0 mm 207 W/m2
11:35 12.6 °C 11.5 °C 1015.1 hPa WNW 6.4 km/h 9.7 km/h 93 % 0.0 mm 192 W/m2
11:40 12.7 °C 11.4 °C 1015.1 hPa NW 3.2 km/h 14.5 km/h 92 % 0.0 mm 195 W/m2
11:45 12.4 °C 10.8 °C 1015.1 hPa NW 8.0 km/h 14.5 km/h 90 % 0.0 mm 209 W/m2
11:50 12.4 °C 10.8 °C 1015.1 hPa NNW 3.2 km/h 12.9 km/h 90 % 0.0 mm 223 W/m2
11:55 12.7 °C 11.2 °C 1014.8 hPa West 4.8 km/h 12.9 km/h 91 % 0.0 mm 221 W/m2
12:00 12.7 °C 11.3 °C 1014.8 hPa NNW 8.0 km/h 8.0 km/h 91 % 0.0 mm 244 W/m2
12:05 12.7 °C 11.3 °C 1014.8 hPa WNW 3.2 km/h 14.5 km/h 91 % 0.0 mm 253 W/m2
12:10 12.8 °C 11.2 °C 1014.4 hPa NW 1.6 km/h 14.5 km/h 90 % 0.0 mm 234 W/m2
12:15 12.8 °C 11.2 °C 1014.4 hPa North 1.6 km/h 9.7 km/h 90 % 0.0 mm 149 W/m2
12:20 12.5 °C 10.6 °C 1014.4 hPa NNW 6.4 km/h 14.5 km/h 88 % 0.0 mm 144 W/m2
12:25 12.6 °C 11.0 °C 1014.4 hPa Calm   14.5 km/h 90 % 0.0 mm 204 W/m2
12:30 12.9 °C 11.6 °C 1014.4 hPa NNW 3.2 km/h 9.7 km/h 92 % 0.0 mm 211 W/m2
12:35 13.0 °C 11.6 °C 1014.4 hPa NNW 9.7 km/h 12.9 km/h 91 % 0.0 mm 148 W/m2
12:40 12.9 °C 11.5 °C 1014.1 hPa Calm   14.5 km/h 91 % 0.0 mm 160 W/m2
12:45 12.8 °C 11.3 °C 1014.1 hPa WNW 6.4 km/h 14.5 km/h 91 % 0.0 mm 192 W/m2
12:50 12.7 °C 10.9 °C 1014.4 hPa WNW 4.8 km/h 11.3 km/h 89 % 0.0 mm 163 W/m2
12:55 12.8 °C 11.0 °C 1014.8 hPa WNW 4.8 km/h 12.9 km/h 89 % 0.0 mm 190 W/m2
13:00 12.8 °C 10.9 °C 1014.8 hPa NW 12.9 km/h 12.9 km/h 88 % 0.0 mm 322 W/m2
13:05 13.2 °C 11.3 °C 1014.8 hPa WNW 6.4 km/h 14.5 km/h 88 % 0.0 mm 352 W/m2
13:10 13.4 °C 11.3 °C 1014.8 hPa Calm   14.5 km/h 87 % 0.0 mm 304 W/m2
13:15 13.7 °C 11.4 °C 1014.8 hPa NNW 3.2 km/h 12.9 km/h 86 % 0.0 mm 373 W/m2
13:20 13.8 °C 11.7 °C 1014.8 hPa North 1.6 km/h 12.9 km/h 87 % 0.0 mm 350 W/m2
13:25 13.9 °C 11.2 °C 1014.8 hPa WNW 3.2 km/h 9.7 km/h 84 % 0.0 mm 308 W/m2
13:30 14.1 °C 11.7 °C 1015.1 hPa NW 8.0 km/h 9.7 km/h 86 % 0.0 mm 230 W/m2
13:35 13.8 °C 11.5 °C 1014.8 hPa NNW 4.8 km/h 14.5 km/h 86 % 0.0 mm 253 W/m2
13:40 13.6 °C 11.0 °C 1014.8 hPa NW 9.7 km/h 14.5 km/h 84 % 0.0 mm 334 W/m2
13:45 13.8 °C 11.1 °C 1014.8 hPa WNW 4.8 km/h 12.9 km/h 84 % 0.0 mm 332 W/m2
13:55 14.3 °C 11.8 °C 1014.4 hPa NNW 4.8 km/h 14.5 km/h 85 % 0.0 mm 454 W/m2
14:00 14.6 °C 11.3 °C 1014.8 hPa NW 9.7 km/h 17.7 km/h 81 % 0.0 mm 522 W/m2
14:05 14.9 °C 11.5 °C 1014.4 hPa West 11.3 km/h 17.7 km/h 80 % 0.0 mm 694 W/m2
14:10 15.3 °C 12.3 °C 1014.4 hPa WNW 3.2 km/h 14.5 km/h 82 % 0.0 mm 490 W/m2
14:15 15.3 °C 12.1 °C 1014.4 hPa NW 6.4 km/h 16.1 km/h 81 % 0.0 mm 429 W/m2
14:20 15.1 °C 11.5 °C 1014.4 hPa NE 3.2 km/h 16.1 km/h 79 % 0.0 mm 367 W/m2
14:25 14.8 °C 11.4 °C 1014.4 hPa NW 4.8 km/h 17.7 km/h 80 % 0.0 mm 366 W/m2
14:30 14.6 °C 11.0 °C 1014.4 hPa WNW 4.8 km/h 17.7 km/h 79 % 0.0 mm 345 W/m2
14:35 14.6 °C 11.4 °C 1014.4 hPa NNW 9.7 km/h 16.1 km/h 81 % 0.0 mm 452 W/m2
14:40 15.0 °C 11.6 °C 1014.4 hPa WNW 4.8 km/h 16.1 km/h 80 % 0.0 mm 443 W/m2
14:45 15.1 °C 11.2 °C 1014.4 hPa WNW 11.3 km/h 16.1 km/h 78 % 0.0 mm 417 W/m2
14:50 15.1 °C 11.8 °C 1014.4 hPa WNW 12.9 km/h 16.1 km/h 81 % 0.0 mm 432 W/m2
14:55 15.1 °C 11.2 °C 1014.4 hPa West 11.3 km/h 16.1 km/h 78 % 0.0 mm 346 W/m2
15:00 14.8 °C 11.0 °C 1014.4 hPa WSW 8.0 km/h 19.3 km/h 78 % 0.0 mm 341 W/m2
15:05 14.9 °C 11.5 °C 1014.4 hPa WNW 8.0 km/h 19.3 km/h 80 % 0.0 mm 381 W/m2
15:10 15.0 °C 11.6 °C 1014.1 hPa WNW 4.8 km/h 19.3 km/h 80 % 0.0 mm 348 W/m2
15:15 15.0 °C 11.4 °C 1014.1 hPa West 8.0 km/h 22.5 km/h 79 % 0.0 mm 406 W/m2
15:20 15.0 °C 11.6 °C 1014.1 hPa West 16.1 km/h 22.5 km/h 80 % 0.0 mm 461 W/m2
15:25 15.0 °C 11.4 °C 1014.1 hPa NW 6.4 km/h 19.3 km/h 79 % 0.0 mm 420 W/m2
15:30 14.9 °C 11.1 °C 1014.1 hPa WNW 12.9 km/h 20.9 km/h 78 % 0.0 mm 431 W/m2
15:35 14.9 °C 11.7 °C 1014.1 hPa WNW 6.4 km/h 29.0 km/h 81 % 0.0 mm 399 W/m2
15:40 14.8 °C 11.0 °C 1014.1 hPa WNW 11.3 km/h 29.0 km/h 78 % 0.0 mm 429 W/m2
15:45 14.8 °C 10.8 °C 1014.1 hPa NNW 14.5 km/h 22.5 km/h 77 % 0.0 mm 420 W/m2
15:50 14.7 °C 10.9 °C 1014.1 hPa WNW 12.9 km/h 24.1 km/h 78 % 0.0 mm 425 W/m2
15:55 14.8 °C 11.2 °C 1014.1 hPa NW 16.1 km/h 24.1 km/h 79 % 0.0 mm 411 W/m2
16:00 14.7 °C 11.3 °C 1014.1 hPa West 14.5 km/h 22.5 km/h 80 % 0.0 mm 413 W/m2
16:05 14.8 °C 11.5 °C 1014.1 hPa WNW 8.0 km/h 22.5 km/h 81 % 0.0 mm 480 W/m2
16:10 14.9 °C 11.5 °C 1014.1 hPa West 17.7 km/h 27.4 km/h 80 % 0.0 mm 454 W/m2
16:15 14.8 °C 11.2 °C 1014.1 hPa WNW 12.9 km/h 30.6 km/h 79 % 0.0 mm 427 W/m2
16:20 14.8 °C 11.2 °C 1014.1 hPa WNW 12.9 km/h 30.6 km/h 79 % 0.0 mm 520 W/m2
16:25 15.1 °C 11.2 °C 1014.1 hPa WSW 8.0 km/h 25.7 km/h 78 % 0.0 mm 543 W/m2
16:30 15.7 °C 11.6 °C 1014.1 hPa WNW 11.3 km/h 25.7 km/h 77 % 0.0 mm 679 W/m2
16:35 15.6 °C 10.9 °C 1014.1 hPa NW 16.1 km/h 25.7 km/h 74 % 0.0 mm 408 W/m2
16:40 15.3 °C 10.5 °C 1014.4 hPa West 12.9 km/h 27.4 km/h 73 % 0.0 mm 550 W/m2
16:45 15.3 °C 10.3 °C 1014.4 hPa WNW 12.9 km/h 27.4 km/h 72 % 0.0 mm 446 W/m2
16:50 15.2 °C 10.4 °C 1014.1 hPa West 16.1 km/h 24.1 km/h 73 % 0.0 mm 346 W/m2
16:55 15.1 °C 10.7 °C 1014.4 hPa WNW 16.1 km/h 29.0 km/h 75 % 0.0 mm 392 W/m2
17:00 14.9 °C 10.5 °C 1014.4 hPa West 14.5 km/h 29.0 km/h 75 % 0.0 mm 373 W/m2
17:05 14.7 °C 10.1 °C 1014.4 hPa West 11.3 km/h 32.2 km/h 74 % 0.0 mm 345 W/m2
17:10 14.8 °C 10.6 °C 1014.4 hPa WNW 12.9 km/h 32.2 km/h 76 % 0.0 mm 329 W/m2
17:15 14.7 °C 10.1 °C 1014.4 hPa WNW 11.3 km/h 25.7 km/h 74 % 0.0 mm 346 W/m2
17:20 14.6 °C 9.8 °C 1014.4 hPa WNW 24.1 km/h 25.7 km/h 73 % 0.0 mm 352 W/m2
17:25 14.6 °C 10.2 °C 1014.4 hPa West 19.3 km/h 25.7 km/h 75 % 0.0 mm 352 W/m2
17:30 14.6 °C 10.0 °C 1014.4 hPa WNW 20.9 km/h 29.0 km/h 74 % 0.0 mm 325 W/m2
17:35 14.5 °C 10.3 °C 1014.4 hPa NW 6.4 km/h 29.0 km/h 76 % 0.0 mm 304 W/m2
17:40 14.6 °C 10.6 °C 1014.4 hPa WNW 6.4 km/h 22.5 km/h 77 % 0.0 mm 299 W/m2
17:45 14.6 °C 10.6 °C 1014.4 hPa WNW 20.9 km/h 27.4 km/h 77 % 0.0 mm 308 W/m2
17:50 14.6 °C 10.6 °C 1014.4 hPa WNW 16.1 km/h 27.4 km/h 77 % 0.0 mm 288 W/m2
17:55 14.6 °C 10.6 °C 1014.4 hPa NW 16.1 km/h 32.2 km/h 77 % 0.0 mm 403 W/m2
18:00 14.7 °C 10.7 °C 1014.4 hPa WNW 8.0 km/h 32.2 km/h 77 % 0.0 mm 425 W/m2
18:05 15.2 °C 11.0 °C 1014.4 hPa WNW 16.1 km/h 27.4 km/h 76 % 0.0 mm 492 W/m2
18:10 15.4 °C 11.4 °C 1014.4 hPa WNW 9.7 km/h 20.9 km/h 77 % 0.0 mm 450 W/m2
18:15 15.3 °C 10.3 °C 1014.4 hPa WNW 14.5 km/h 27.4 km/h 72 % 0.0 mm 429 W/m2
18:20 15.2 °C 10.4 °C 1014.4 hPa NW 4.8 km/h 27.4 km/h 73 % 0.0 mm 299 W/m2
18:25 14.9 °C 10.3 °C 1014.4 hPa West 11.3 km/h 24.1 km/h 74 % 0.0 mm 323 W/m2
18:30 14.8 °C 10.2 °C 1014.4 hPa WNW 11.3 km/h 27.4 km/h 74 % 0.0 mm 309 W/m2
18:40 14.4 °C 9.6 °C 1014.4 hPa WNW 12.9 km/h 33.8 km/h 73 % 0.0 mm 225 W/m2
18:45 14.2 °C 9.4 °C 1014.4 hPa WNW 16.1 km/h 32.2 km/h 73 % 0.0 mm 158 W/m2
18:50 13.9 °C 9.0 °C 1014.8 hPa NNW 12.9 km/h 25.7 km/h 72 % 0.0 mm 158 W/m2
18:55 13.8 °C 9.3 °C 1014.8 hPa WNW 14.5 km/h 27.4 km/h 74 % 0.0 mm 179 W/m2
19:00 13.8 °C 9.3 °C 1014.8 hPa NW 9.7 km/h 27.4 km/h 74 % 0.0 mm 202 W/m2
19:05 13.9 °C 9.8 °C 1014.8 hPa WNW 19.3 km/h 25.7 km/h 76 % 0.0 mm 195 W/m2
19:10 13.9 °C 9.4 °C 1014.8 hPa WNW 16.1 km/h 25.7 km/h 74 % 0.0 mm 211 W/m2
19:15 13.9 °C 9.4 °C 1014.8 hPa WNW 8.0 km/h 25.7 km/h 74 % 0.0 mm 195 W/m2
19:20 13.8 °C 9.1 °C 1014.8 hPa NW 6.4 km/h 25.7 km/h 73 % 0.0 mm 176 W/m2
19:25 13.7 °C 8.7 °C 1014.8 hPa WNW 22.5 km/h 29.0 km/h 72 % 0.0 mm 155 W/m2
19:30 13.5 °C 8.8 °C 1014.8 hPa WNW 4.8 km/h 29.0 km/h 73 % 0.0 mm 149 W/m2
19:35 13.5 °C 8.8 °C 1014.8 hPa NNW 9.7 km/h 27.4 km/h 73 % 0.0 mm 151 W/m2
19:40 13.5 °C 9.0 °C 1014.8 hPa West 19.3 km/h 25.7 km/h 74 % 0.0 mm 169 W/m2
19:45 13.6 °C 9.0 °C 1014.8 hPa WNW 12.9 km/h 24.1 km/h 74 % 0.0 mm 193 W/m2
19:50 13.6 °C 8.4 °C 1014.8 hPa NW 9.7 km/h 24.1 km/h 71 % 0.0 mm 142 W/m2
19:55 13.5 °C 8.3 °C 1014.8 hPa WNW 4.8 km/h 25.7 km/h 71 % 0.0 mm 199 W/m2
20:00 13.6 °C 8.7 °C 1014.8 hPa WNW 11.3 km/h 25.7 km/h 72 % 0.0 mm 171 W/m2
20:05 13.8 °C 9.0 °C 1014.8 hPa WNW 14.5 km/h 24.1 km/h 73 % 0.0 mm 239 W/m2
20:10 13.9 °C 8.8 °C 1014.8 hPa West 9.7 km/h 19.3 km/h 71 % 0.0 mm 169 W/m2
20:15 14.2 °C 9.4 °C 1014.8 hPa NW 11.3 km/h 20.9 km/h 73 % 0.0 mm 234 W/m2
20:20 14.2 °C 9.2 °C 1015.1 hPa WNW 8.0 km/h 24.1 km/h 72 % 0.0 mm 127 W/m2
20:25 13.9 °C 9.1 °C 1014.8 hPa West 4.8 km/h 24.1 km/h 73 % 0.0 mm 114 W/m2
20:30 13.7 °C 9.3 °C 1014.8 hPa NW 14.5 km/h 25.7 km/h 75 % 0.0 mm 90 W/m2
20:40 13.3 °C 9.2 °C 1015.1 hPa WNW 20.9 km/h 25.7 km/h 76 % 0.0 mm 54 W/m2
20:45 13.3 °C 9.3 °C 1015.1 hPa WNW 9.7 km/h 25.7 km/h 77 % 0.0 mm 42 W/m2
20:50 13.1 °C 9.2 °C 1015.1 hPa NW 20.9 km/h 24.1 km/h 77 % 0.0 mm 40 W/m2
20:55 13.0 °C 9.3 °C 1015.1 hPa West 12.9 km/h 24.1 km/h 78 % 0.0 mm 39 W/m2
21:00 12.9 °C 9.3 °C 1015.1 hPa WNW 8.0 km/h 24.1 km/h 79 % 0.0 mm 25 W/m2
21:05 12.7 °C 9.0 °C 1015.1 hPa WNW 12.9 km/h 19.3 km/h 78 % 0.0 mm 30 W/m2
21:10 12.6 °C 8.9 °C 1015.1 hPa NW 8.0 km/h 20.9 km/h 78 % 0.0 mm 21 W/m2
21:15 12.5 °C 8.8 °C 1015.1 hPa NW 6.4 km/h 20.9 km/h 78 % 0.0 mm 21 W/m2
21:20 12.4 °C 8.7 °C 1015.5 hPa NW 12.9 km/h 22.5 km/h 78 % 0.0 mm 19 W/m2
21:25 12.4 °C 8.5 °C 1015.5 hPa NW 9.7 km/h 22.5 km/h 77 % 0.0 mm 14 W/m2
21:30 12.3 °C 8.6 °C 1015.5 hPa West 6.4 km/h 20.9 km/h 78 % 0.0 mm 11 W/m2
21:35 12.3 °C 8.7 °C 1015.5 hPa WNW 4.8 km/h 14.5 km/h 79 % 0.0 mm 9 W/m2
21:40 12.3 °C 8.6 °C 1015.5 hPa NW 12.9 km/h 22.5 km/h 78 % 0.0 mm 5 W/m2
21:45 12.3 °C 8.6 °C 1015.5 hPa WNW 4.8 km/h 22.5 km/h 78 % 0.0 mm 0 W/m2
21:50 12.1 °C 8.4 °C 1015.5 hPa WNW 12.9 km/h 16.1 km/h 78 % 0.0 mm 0 W/m2
21:55 12.0 °C 7.9 °C 1015.5 hPa WNW 9.7 km/h 24.1 km/h 76 % 0.0 mm 0 W/m2
22:00 11.9 °C 7.6 °C 1015.5 hPa NW 9.7 km/h 24.1 km/h 75 % 0.0 mm 0 W/m2
22:05 11.9 °C 7.4 °C 1015.5 hPa WNW 8.0 km/h 19.3 km/h 74 % 0.0 mm 0 W/m2
22:10 12.0 °C 7.5 °C 1015.5 hPa WNW 9.7 km/h 20.9 km/h 74 % 0.0 mm 0 W/m2
22:15 12.0 °C 7.5 °C 1015.5 hPa NW 11.3 km/h 20.9 km/h 74 % 0.0 mm 0 W/m2
22:20 11.9 °C 7.8 °C 1015.8 hPa WNW 6.4 km/h 19.3 km/h 76 % 0.0 mm 0 W/m2
22:25 11.9 °C 8.0 °C 1015.8 hPa West 17.7 km/h 19.3 km/h 77 % 0.0 mm 0 W/m2
22:30 12.0 °C 8.1 °C 1015.8 hPa WNW 4.8 km/h 20.9 km/h 77 % 0.0 mm 0 W/m2
22:35 12.0 °C 8.3 °C 1015.8 hPa WNW 4.8 km/h 20.9 km/h 78 % 0.0 mm 0 W/m2
22:40 12.1 °C 8.3 °C 1015.8 hPa West 11.3 km/h 17.7 km/h 78 % 0.0 mm 0 W/m2
22:45 12.1 °C 8.3 °C 1015.8 hPa WNW 3.2 km/h 17.7 km/h 78 % 0.0 mm 0 W/m2
22:50 11.9 °C 8.2 °C 1015.8 hPa WNW 16.1 km/h 17.7 km/h 78 % 0.0 mm 0 W/m2
22:55 11.9 °C 8.2 °C 1015.8 hPa WNW 3.2 km/h 19.3 km/h 78 % 0.0 mm 0 W/m2
23:00 11.9 °C 8.2 °C 1015.8 hPa WNW 9.7 km/h 19.3 km/h 78 % 0.0 mm 0 W/m2
23:05 11.9 °C 8.2 °C 1015.8 hPa West 8.0 km/h 17.7 km/h 78 % 0.0 mm 0 W/m2
23:10 11.8 °C 8.3 °C 1016.1 hPa NW 8.0 km/h 16.1 km/h 79 % 0.0 mm 0 W/m2
23:15 11.7 °C 8.1 °C 1015.8 hPa WNW 4.8 km/h 14.5 km/h 79 % 0.0 mm 0 W/m2
23:20 11.6 °C 8.1 °C 1016.1 hPa West 9.7 km/h 16.1 km/h 79 % 0.0 mm 0 W/m2
23:25 11.7 °C 8.0 °C 1016.1 hPa NW 8.0 km/h 16.1 km/h 78 % 0.0 mm 0 W/m2
23:30 11.6 °C 8.0 °C 1015.8 hPa NW 9.7 km/h 16.1 km/h 79 % 0.0 mm 0 W/m2
23:35 11.7 °C 8.0 °C 1015.8 hPa WNW 9.7 km/h 16.1 km/h 78 % 0.0 mm 0 W/m2
23:40 11.7 °C 8.2 °C 1015.8 hPa WNW 9.7 km/h 16.1 km/h 79 % 0.0 mm 0 W/m2
23:45 11.7 °C 8.2 °C 1015.8 hPa WSW 9.7 km/h 16.1 km/h 79 % 0.0 mm 0 W/m2
23:50 11.7 °C 8.4 °C 1015.8 hPa NW 8.0 km/h 16.1 km/h 80 % 0.0 mm 0 W/m2
23:55 11.7 °C 8.4 °C 1015.8 hPa WNW 6.4 km/h 12.9 km/h 80 % 0.0 mm 0 W/m2
Avec l'autorisation de Weather Underground - 1.75 mb